sensor_id;sensor_type;location;lat;lon;timestamp;P1;durP1;ratioP1;P2;durP2;ratioP2
17494;SDS011;8864;51.970;4.614;2023-03-14T00:02:25;8.23;;;2.00;;
17494;SDS011;8864;51.970;4.614;2023-03-14T00:04:53;5.32;;;1.80;;
17494;SDS011;8864;51.970;4.614;2023-03-14T00:07:22;5.18;;;1.60;;
17494;SDS011;8864;51.970;4.614;2023-03-14T00:09:50;9.07;;;1.85;;
17494;SDS011;8864;51.970;4.614;2023-03-14T00:12:18;10.57;;;1.70;;
17494;SDS011;8864;51.970;4.614;2023-03-14T00:14:45;12.43;;;2.17;;
17494;SDS011;8864;51.970;4.614;2023-03-14T00:17:11;9.95;;;1.80;;
17494;SDS011;8864;51.970;4.614;2023-03-14T00:19:38;8.63;;;2.00;;
17494;SDS011;8864;51.970;4.614;2023-03-14T00:22:05;10.02;;;2.10;;
17494;SDS011;8864;51.970;4.614;2023-03-14T00:24:34;5.97;;;1.60;;
17494;SDS011;8864;51.970;4.614;2023-03-14T00:27:00;6.40;;;1.85;;
17494;SDS011;8864;51.970;4.614;2023-03-14T00:29:27;7.45;;;1.50;;
17494;SDS011;8864;51.970;4.614;2023-03-14T00:31:54;6.10;;;1.90;;
17494;SDS011;8864;51.970;4.614;2023-03-14T00:34:21;6.50;;;1.65;;
17494;SDS011;8864;51.970;4.614;2023-03-14T00:36:48;5.32;;;1.50;;
17494;SDS011;8864;51.970;4.614;2023-03-14T00:39:15;8.52;;;1.42;;
17494;SDS011;8864;51.970;4.614;2023-03-14T00:41:43;8.68;;;1.52;;
17494;SDS011;8864;51.970;4.614;2023-03-14T00:44:10;7.57;;;1.38;;
17494;SDS011;8864;51.970;4.614;2023-03-14T00:46:37;6.47;;;1.65;;
17494;SDS011;8864;51.970;4.614;2023-03-14T00:49:04;6.68;;;1.60;;
17494;SDS011;8864;51.970;4.614;2023-03-14T00:51:31;5.80;;;1.58;;
17494;SDS011;8864;51.970;4.614;2023-03-14T00:53:58;6.70;;;1.60;;
17494;SDS011;8864;51.970;4.614;2023-03-14T00:56:25;4.20;;;1.42;;
17494;SDS011;8864;51.970;4.614;2023-03-14T00:58:54;7.22;;;1.35;;
17494;SDS011;8864;51.970;4.614;2023-03-14T01:01:22;5.00;;;1.55;;
17494;SDS011;8864;51.970;4.614;2023-03-14T01:03:51;6.43;;;1.48;;
17494;SDS011;8864;51.970;4.614;2023-03-14T01:06:20;6.03;;;1.42;;
17494;SDS011;8864;51.970;4.614;2023-03-14T01:08:48;4.32;;;1.67;;
17494;SDS011;8864;51.970;4.614;2023-03-14T01:11:16;4.78;;;1.45;;
17494;SDS011;8864;51.970;4.614;2023-03-14T01:13:47;5.22;;;1.15;;
17494;SDS011;8864;51.970;4.614;2023-03-14T01:16:17;6.47;;;1.67;;
17494;SDS011;8864;51.970;4.614;2023-03-14T01:18:45;7.47;;;1.58;;
17494;SDS011;8864;51.970;4.614;2023-03-14T01:21:13;6.05;;;1.50;;
17494;SDS011;8864;51.970;4.614;2023-03-14T01:23:42;5.18;;;1.50;;
17494;SDS011;8864;51.970;4.614;2023-03-14T01:26:09;5.05;;;1.05;;
17494;SDS011;8864;51.970;4.614;2023-03-14T01:28:37;4.10;;;1.23;;
17494;SDS011;8864;51.970;4.614;2023-03-14T01:31:04;4.65;;;1.30;;
17494;SDS011;8864;51.970;4.614;2023-03-14T01:33:34;3.78;;;1.20;;
17494;SDS011;8864;51.970;4.614;2023-03-14T01:36:01;6.13;;;1.40;;
17494;SDS011;8864;51.970;4.614;2023-03-14T01:38:28;4.65;;;1.33;;
17494;SDS011;8864;51.970;4.614;2023-03-14T01:40:55;3.28;;;0.98;;
17494;SDS011;8864;51.970;4.614;2023-03-14T01:43:23;5.50;;;1.38;;
17494;SDS011;8864;51.970;4.614;2023-03-14T01:48:46;4.32;;;1.23;;
17494;SDS011;8864;51.970;4.614;2023-03-14T01:51:19;10.07;;;1.77;;
17494;SDS011;8864;51.970;4.614;2023-03-14T01:53:48;6.50;;;1.60;;
17494;SDS011;8864;51.970;4.614;2023-03-14T01:56:17;7.22;;;1.52;;
17494;SDS011;8864;51.970;4.614;2023-03-14T01:58:45;7.43;;;1.30;;
17494;SDS011;8864;51.970;4.614;2023-03-14T02:01:15;5.50;;;1.20;;
17494;SDS011;8864;51.970;4.614;2023-03-14T02:03:46;4.10;;;1.00;;
17494;SDS011;8864;51.970;4.614;2023-03-14T02:06:17;3.60;;;1.33;;
17494;SDS011;8864;51.970;4.614;2023-03-14T02:08:48;4.93;;;1.52;;
17494;SDS011;8864;51.970;4.614;2023-03-14T02:11:16;5.38;;;1.17;;
17494;SDS011;8864;51.970;4.614;2023-03-14T02:13:43;3.00;;;1.10;;
17494;SDS011;8864;51.970;4.614;2023-03-14T02:16:10;6.68;;;1.20;;
17494;SDS011;8864;51.970;4.614;2023-03-14T02:18:37;6.43;;;1.30;;
17494;SDS011;8864;51.970;4.614;2023-03-14T02:21:11;4.78;;;1.42;;
17494;SDS011;8864;51.970;4.614;2023-03-14T02:23:48;5.72;;;1.20;;
17494;SDS011;8864;51.970;4.614;2023-03-14T02:26:26;4.90;;;1.40;;
17494;SDS011;8864;51.970;4.614;2023-03-14T02:28:59;4.30;;;1.00;;
17494;SDS011;8864;51.970;4.614;2023-03-14T02:31:26;3.58;;;1.13;;
17494;SDS011;8864;51.970;4.614;2023-03-14T02:33:53;2.97;;;0.85;;
17494;SDS011;8864;51.970;4.614;2023-03-14T02:36:21;5.28;;;1.27;;
17494;SDS011;8864;51.970;4.614;2023-03-14T02:38:50;6.57;;;1.42;;
17494;SDS011;8864;51.970;4.614;2023-03-14T02:41:21;6.53;;;1.58;;
17494;SDS011;8864;51.970;4.614;2023-03-14T02:43:48;4.30;;;1.13;;
17494;SDS011;8864;51.970;4.614;2023-03-14T02:46:17;6.20;;;1.15;;
17494;SDS011;8864;51.970;4.614;2023-03-14T02:48:47;2.33;;;0.93;;
17494;SDS011;8864;51.970;4.614;2023-03-14T02:51:17;5.03;;;1.10;;
17494;SDS011;8864;51.970;4.614;2023-03-14T02:53:45;2.85;;;0.80;;
17494;SDS011;8864;51.970;4.614;2023-03-14T02:56:12;4.00;;;1.33;;
17494;SDS011;8864;51.970;4.614;2023-03-14T02:58:39;5.65;;;1.17;;
17494;SDS011;8864;51.970;4.614;2023-03-14T03:01:06;4.45;;;1.27;;
17494;SDS011;8864;51.970;4.614;2023-03-14T03:03:34;3.88;;;1.10;;
17494;SDS011;8864;51.970;4.614;2023-03-14T03:06:01;4.35;;;1.10;;
17494;SDS011;8864;51.970;4.614;2023-03-14T03:08:28;4.95;;;1.10;;
17494;SDS011;8864;51.970;4.614;2023-03-14T03:10:56;7.93;;;1.40;;
17494;SDS011;8864;51.970;4.614;2023-03-14T03:13:23;3.83;;;1.05;;
17494;SDS011;8864;51.970;4.614;2023-03-14T03:15:51;2.30;;;0.95;;
17494;SDS011;8864;51.970;4.614;2023-03-14T03:18:19;4.43;;;1.05;;
17494;SDS011;8864;51.970;4.614;2023-03-14T03:20:47;3.15;;;0.82;;
17494;SDS011;8864;51.970;4.614;2023-03-14T03:23:14;4.47;;;0.88;;
17494;SDS011;8864;51.970;4.614;2023-03-14T03:25:41;3.90;;;1.38;;
17494;SDS011;8864;51.970;4.614;2023-03-14T03:28:08;3.92;;;1.10;;
17494;SDS011;8864;51.970;4.614;2023-03-14T03:30:38;4.97;;;1.30;;
17494;SDS011;8864;51.970;4.614;2023-03-14T03:33:05;4.18;;;1.13;;
17494;SDS011;8864;51.970;4.614;2023-03-14T03:35:32;4.95;;;1.00;;
17494;SDS011;8864;51.970;4.614;2023-03-14T03:38:00;5.65;;;1.00;;
17494;SDS011;8864;51.970;4.614;2023-03-14T03:40:27;6.30;;;1.30;;
17494;SDS011;8864;51.970;4.614;2023-03-14T03:42:54;3.83;;;1.25;;
17494;SDS011;8864;51.970;4.614;2023-03-14T03:45:21;6.80;;;1.27;;
17494;SDS011;8864;51.970;4.614;2023-03-14T03:47:48;5.60;;;1.25;;
17494;SDS011;8864;51.970;4.614;2023-03-14T03:50:15;4.22;;;1.10;;
17494;SDS011;8864;51.970;4.614;2023-03-14T03:52:42;7.07;;;1.45;;
17494;SDS011;8864;51.970;4.614;2023-03-14T03:55:10;8.90;;;1.45;;
17494;SDS011;8864;51.970;4.614;2023-03-14T03:57:37;4.85;;;1.30;;
17494;SDS011;8864;51.970;4.614;2023-03-14T04:00:05;4.95;;;1.45;;
17494;SDS011;8864;51.970;4.614;2023-03-14T04:02:34;4.32;;;0.90;;
17494;SDS011;8864;51.970;4.614;2023-03-14T04:05:01;6.95;;;1.20;;
17494;SDS011;8864;51.970;4.614;2023-03-14T04:07:28;5.35;;;1.30;;
17494;SDS011;8864;51.970;4.614;2023-03-14T04:09:57;6.40;;;1.30;;
17494;SDS011;8864;51.970;4.614;2023-03-14T04:12:25;4.70;;;1.10;;
17494;SDS011;8864;51.970;4.614;2023-03-14T04:14:52;3.90;;;1.10;;
17494;SDS011;8864;51.970;4.614;2023-03-14T04:17:19;3.65;;;1.05;;
17494;SDS011;8864;51.970;4.614;2023-03-14T04:19:46;6.72;;;1.70;;
17494;SDS011;8864;51.970;4.614;2023-03-14T04:22:15;5.03;;;1.30;;
17494;SDS011;8864;51.970;4.614;2023-03-14T04:24:42;3.28;;;1.20;;
17494;SDS011;8864;51.970;4.614;2023-03-14T04:27:09;3.88;;;1.10;;
17494;SDS011;8864;51.970;4.614;2023-03-14T04:29:37;2.45;;;0.90;;
17494;SDS011;8864;51.970;4.614;2023-03-14T04:32:04;7.55;;;1.30;;
17494;SDS011;8864;51.970;4.614;2023-03-14T04:34:31;4.30;;;0.80;;
17494;SDS011;8864;51.970;4.614;2023-03-14T04:36:58;6.97;;;1.25;;
17494;SDS011;8864;51.970;4.614;2023-03-14T04:39:25;5.82;;;1.40;;
17494;SDS011;8864;51.970;4.614;2023-03-14T04:41:52;6.95;;;1.63;;
17494;SDS011;8864;51.970;4.614;2023-03-14T04:44:19;5.90;;;1.50;;
17494;SDS011;8864;51.970;4.614;2023-03-14T04:46:47;5.50;;;1.05;;
17494;SDS011;8864;51.970;4.614;2023-03-14T04:49:14;3.92;;;1.10;;
17494;SDS011;8864;51.970;4.614;2023-03-14T04:51:41;4.88;;;1.08;;
17494;SDS011;8864;51.970;4.614;2023-03-14T04:54:08;4.03;;;1.38;;
17494;SDS011;8864;51.970;4.614;2023-03-14T04:56:35;3.85;;;1.00;;
17494;SDS011;8864;51.970;4.614;2023-03-14T04:59:02;7.03;;;0.95;;
17494;SDS011;8864;51.970;4.614;2023-03-14T05:01:29;4.88;;;1.10;;
17494;SDS011;8864;51.970;4.614;2023-03-14T05:03:58;3.65;;;0.85;;
17494;SDS011;8864;51.970;4.614;2023-03-14T05:06:25;4.95;;;1.13;;
17494;SDS011;8864;51.970;4.614;2023-03-14T05:08:52;5.68;;;1.20;;
17494;SDS011;8864;51.970;4.614;2023-03-14T05:11:19;3.95;;;1.23;;
17494;SDS011;8864;51.970;4.614;2023-03-14T05:13:46;5.13;;;1.30;;
17494;SDS011;8864;51.970;4.614;2023-03-14T05:16:13;8.45;;;1.42;;
17494;SDS011;8864;51.970;4.614;2023-03-14T05:18:40;4.80;;;1.17;;
17494;SDS011;8864;51.970;4.614;2023-03-14T05:21:08;6.72;;;1.23;;
17494;SDS011;8864;51.970;4.614;2023-03-14T05:23:35;3.28;;;1.00;;
17494;SDS011;8864;51.970;4.614;2023-03-14T05:26:02;4.05;;;1.13;;
17494;SDS011;8864;51.970;4.614;2023-03-14T05:28:29;4.40;;;0.95;;
17494;SDS011;8864;51.970;4.614;2023-03-14T05:30:56;4.55;;;1.10;;
17494;SDS011;8864;51.970;4.614;2023-03-14T05:33:23;2.47;;;0.85;;
17494;SDS011;8864;51.970;4.614;2023-03-14T05:35:50;7.55;;;0.95;;
17494;SDS011;8864;51.970;4.614;2023-03-14T05:38:18;6.15;;;1.45;;
17494;SDS011;8864;51.970;4.614;2023-03-14T05:40:45;3.63;;;1.00;;
17494;SDS011;8864;51.970;4.614;2023-03-14T05:43:12;2.15;;;0.80;;
17494;SDS011;8864;51.970;4.614;2023-03-14T05:45:40;4.03;;;0.98;;
17494;SDS011;8864;51.970;4.614;2023-03-14T05:48:07;4.32;;;1.10;;
17494;SDS011;8864;51.970;4.614;2023-03-14T05:50:34;3.05;;;0.95;;
17494;SDS011;8864;51.970;4.614;2023-03-14T05:53:01;3.95;;;1.00;;
17494;SDS011;8864;51.970;4.614;2023-03-14T05:55:30;5.18;;;0.98;;
17494;SDS011;8864;51.970;4.614;2023-03-14T05:57:57;5.15;;;0.90;;
17494;SDS011;8864;51.970;4.614;2023-03-14T06:00:24;2.38;;;0.82;;
17494;SDS011;8864;51.970;4.614;2023-03-14T06:02:51;3.33;;;1.00;;
17494;SDS011;8864;51.970;4.614;2023-03-14T06:05:18;7.38;;;1.00;;
17494;SDS011;8864;51.970;4.614;2023-03-14T06:07:45;2.08;;;0.63;;
17494;SDS011;8864;51.970;4.614;2023-03-14T06:10:12;3.20;;;0.95;;
17494;SDS011;8864;51.970;4.614;2023-03-14T06:12:40;2.42;;;0.55;;
17494;SDS011;8864;51.970;4.614;2023-03-14T06:15:07;3.00;;;1.00;;
17494;SDS011;8864;51.970;4.614;2023-03-14T06:17:34;4.60;;;0.90;;
17494;SDS011;8864;51.970;4.614;2023-03-14T06:20:01;2.67;;;0.77;;
17494;SDS011;8864;51.970;4.614;2023-03-14T06:22:28;1.23;;;0.70;;
17494;SDS011;8864;51.970;4.614;2023-03-14T06:24:55;2.35;;;0.63;;
17494;SDS011;8864;51.970;4.614;2023-03-14T06:27:22;2.45;;;0.70;;
17494;SDS011;8864;51.970;4.614;2023-03-14T06:29:50;3.67;;;1.40;;
17494;SDS011;8864;51.970;4.614;2023-03-14T06:32:17;2.75;;;0.70;;
17494;SDS011;8864;51.970;4.614;2023-03-14T06:34:45;1.92;;;0.63;;
17494;SDS011;8864;51.970;4.614;2023-03-14T06:37:12;1.85;;;0.75;;
17494;SDS011;8864;51.970;4.614;2023-03-14T06:39:39;1.02;;;0.47;;
17494;SDS011;8864;51.970;4.614;2023-03-14T06:42:06;2.80;;;0.75;;
17494;SDS011;8864;51.970;4.614;2023-03-14T06:44:33;1.90;;;0.68;;
17494;SDS011;8864;51.970;4.614;2023-03-14T06:47:01;2.08;;;0.70;;
17494;SDS011;8864;51.970;4.614;2023-03-14T06:49:28;2.72;;;0.52;;
17494;SDS011;8864;51.970;4.614;2023-03-14T06:51:55;1.23;;;0.60;;
17494;SDS011;8864;51.970;4.614;2023-03-14T06:54:22;2.45;;;0.60;;
17494;SDS011;8864;51.970;4.614;2023-03-14T06:56:49;4.00;;;0.65;;
17494;SDS011;8864;51.970;4.614;2023-03-14T06:59:16;2.10;;;0.80;;
17494;SDS011;8864;51.970;4.614;2023-03-14T07:01:42;1.65;;;0.60;;
17494;SDS011;8864;51.970;4.614;2023-03-14T07:04:11;5.72;;;0.82;;
17494;SDS011;8864;51.970;4.614;2023-03-14T07:06:38;1.38;;;0.60;;
17494;SDS011;8864;51.970;4.614;2023-03-14T07:09:09;2.63;;;0.70;;
17494;SDS011;8864;51.970;4.614;2023-03-14T07:11:36;1.05;;;0.52;;
17494;SDS011;8864;51.970;4.614;2023-03-14T07:14:03;0.63;;;0.50;;
17494;SDS011;8864;51.970;4.614;2023-03-14T07:16:30;1.10;;;0.35;;
17494;SDS011;8864;51.970;4.614;2023-03-14T07:18:58;3.08;;;0.60;;
17494;SDS011;8864;51.970;4.614;2023-03-14T07:21:26;4.85;;;0.70;;
17494;SDS011;8864;51.970;4.614;2023-03-14T07:23:53;2.20;;;0.60;;
17494;SDS011;8864;51.970;4.614;2023-03-14T07:26:20;4.28;;;0.73;;
17494;SDS011;8864;51.970;4.614;2023-03-14T07:28:47;4.03;;;0.95;;
17494;SDS011;8864;51.970;4.614;2023-03-14T07:31:14;2.17;;;0.40;;
17494;SDS011;8864;51.970;4.614;2023-03-14T07:33:41;2.40;;;0.60;;
17494;SDS011;8864;51.970;4.614;2023-03-14T07:36:08;2.22;;;0.50;;
17494;SDS011;8864;51.970;4.614;2023-03-14T07:38:37;3.08;;;0.80;;
17494;SDS011;8864;51.970;4.614;2023-03-14T07:41:04;1.40;;;0.80;;
17494;SDS011;8864;51.970;4.614;2023-03-14T07:43:32;2.33;;;0.60;;
17494;SDS011;8864;51.970;4.614;2023-03-14T07:46:00;1.90;;;0.60;;
17494;SDS011;8864;51.970;4.614;2023-03-14T07:48:27;3.95;;;0.70;;
17494;SDS011;8864;51.970;4.614;2023-03-14T07:50:54;2.15;;;0.70;;
17494;SDS011;8864;51.970;4.614;2023-03-14T07:53:21;3.17;;;0.90;;
17494;SDS011;8864;51.970;4.614;2023-03-14T07:55:51;2.63;;;0.73;;
17494;SDS011;8864;51.970;4.614;2023-03-14T07:58:19;3.38;;;0.60;;
17494;SDS011;8864;51.970;4.614;2023-03-14T08:00:47;3.13;;;0.70;;
17494;SDS011;8864;51.970;4.614;2023-03-14T08:03:15;2.53;;;0.65;;
17494;SDS011;8864;51.970;4.614;2023-03-14T08:05:42;3.85;;;0.65;;
17494;SDS011;8864;51.970;4.614;2023-03-14T08:08:10;3.58;;;0.65;;
17494;SDS011;8864;51.970;4.614;2023-03-14T08:10:36;2.95;;;0.70;;
17494;SDS011;8864;51.970;4.614;2023-03-14T08:13:05;1.50;;;0.50;;
17494;SDS011;8864;51.970;4.614;2023-03-14T08:15:32;1.13;;;0.50;;
17494;SDS011;8864;51.970;4.614;2023-03-14T08:17:59;4.53;;;0.60;;
17494;SDS011;8864;51.970;4.614;2023-03-14T08:20:26;3.47;;;1.13;;
17494;SDS011;8864;51.970;4.614;2023-03-14T08:22:55;2.47;;;0.60;;
17494;SDS011;8864;51.970;4.614;2023-03-14T08:25:23;5.72;;;0.68;;
17494;SDS011;8864;51.970;4.614;2023-03-14T08:27:50;5.22;;;0.88;;
17494;SDS011;8864;51.970;4.614;2023-03-14T08:30:19;3.25;;;0.85;;
17494;SDS011;8864;51.970;4.614;2023-03-14T08:32:47;5.93;;;0.73;;
17494;SDS011;8864;51.970;4.614;2023-03-14T08:35:14;2.85;;;0.63;;
17494;SDS011;8864;51.970;4.614;2023-03-14T08:37:41;3.30;;;0.68;;
17494;SDS011;8864;51.970;4.614;2023-03-14T08:40:08;6.00;;;0.63;;
17494;SDS011;8864;51.970;4.614;2023-03-14T08:42:36;3.75;;;0.70;;
17494;SDS011;8864;51.970;4.614;2023-03-14T08:45:04;3.10;;;0.60;;
17494;SDS011;8864;51.970;4.614;2023-03-14T08:47:34;9.68;;;1.35;;
17494;SDS011;8864;51.970;4.614;2023-03-14T08:50:00;39.13;;;4.55;;
17494;SDS011;8864;51.970;4.614;2023-03-14T08:52:29;24.13;;;4.55;;
17494;SDS011;8864;51.970;4.614;2023-03-14T08:54:56;19.00;;;2.72;;
17494;SDS011;8864;51.970;4.614;2023-03-14T08:57:23;19.10;;;3.05;;
17494;SDS011;8864;51.970;4.614;2023-03-14T08:59:52;22.52;;;2.53;;
17494;SDS011;8864;51.970;4.614;2023-03-14T09:02:20;13.37;;;2.27;;
17494;SDS011;8864;51.970;4.614;2023-03-14T09:04:48;14.35;;;1.98;;
17494;SDS011;8864;51.970;4.614;2023-03-14T09:07:16;9.63;;;2.08;;
17494;SDS011;8864;51.970;4.614;2023-03-14T09:09:43;27.52;;;5.30;;
17494;SDS011;8864;51.970;4.614;2023-03-14T09:12:10;45.83;;;7.03;;
17494;SDS011;8864;51.970;4.614;2023-03-14T09:14:37;50.38;;;7.22;;
17494;SDS011;8864;51.970;4.614;2023-03-14T09:17:04;41.72;;;6.30;;
17494;SDS011;8864;51.970;4.614;2023-03-14T09:19:31;34.20;;;6.47;;
17494;SDS011;8864;51.970;4.614;2023-03-14T09:22:00;36.42;;;5.72;;
17494;SDS011;8864;51.970;4.614;2023-03-14T09:24:27;38.47;;;5.68;;
17494;SDS011;8864;51.970;4.614;2023-03-14T09:26:54;33.03;;;4.97;;
17494;SDS011;8864;51.970;4.614;2023-03-14T09:29:21;25.77;;;5.22;;
17494;SDS011;8864;51.970;4.614;2023-03-14T09:31:49;21.73;;;4.15;;
17494;SDS011;8864;51.970;4.614;2023-03-14T09:34:19;21.67;;;3.75;;
17494;SDS011;8864;51.970;4.614;2023-03-14T09:36:46;22.30;;;4.55;;
17494;SDS011;8864;51.970;4.614;2023-03-14T09:39:14;23.35;;;4.35;;
17494;SDS011;8864;51.970;4.614;2023-03-14T09:41:42;25.92;;;4.72;;
17494;SDS011;8864;51.970;4.614;2023-03-14T09:44:13;20.17;;;3.88;;
17494;SDS011;8864;51.970;4.614;2023-03-14T09:46:42;23.85;;;3.92;;
17494;SDS011;8864;51.970;4.614;2023-03-14T09:49:16;19.08;;;3.42;;
17494;SDS011;8864;51.970;4.614;2023-03-14T09:51:47;17.90;;;3.40;;
17494;SDS011;8864;51.970;4.614;2023-03-14T09:54:24;22.63;;;3.80;;
17494;SDS011;8864;51.970;4.614;2023-03-14T09:56:57;15.10;;;3.08;;
17494;SDS011;8864;51.970;4.614;2023-03-14T09:59:24;10.52;;;2.97;;
17494;SDS011;8864;51.970;4.614;2023-03-14T10:01:53;17.30;;;3.05;;
17494;SDS011;8864;51.970;4.614;2023-03-14T10:04:21;15.43;;;3.17;;
17494;SDS011;8864;51.970;4.614;2023-03-14T10:06:49;12.00;;;2.55;;
17494;SDS011;8864;51.970;4.614;2023-03-14T10:09:17;15.82;;;3.13;;
17494;SDS011;8864;51.970;4.614;2023-03-14T10:11:52;11.20;;;2.70;;
17494;SDS011;8864;51.970;4.614;2023-03-14T10:14:32;10.85;;;2.60;;
17494;SDS011;8864;51.970;4.614;2023-03-14T10:17:07;9.48;;;2.22;;
17494;SDS011;8864;51.970;4.614;2023-03-14T10:19:35;10.75;;;2.28;;
17494;SDS011;8864;51.970;4.614;2023-03-14T10:22:02;8.82;;;2.17;;
17494;SDS011;8864;51.970;4.614;2023-03-14T10:24:31;12.07;;;2.38;;
17494;SDS011;8864;51.970;4.614;2023-03-14T10:27:02;9.88;;;2.00;;
17494;SDS011;8864;51.970;4.614;2023-03-14T10:29:31;8.80;;;2.28;;
17494;SDS011;8864;51.970;4.614;2023-03-14T10:31:59;14.93;;;2.50;;
17494;SDS011;8864;51.970;4.614;2023-03-14T10:34:29;12.57;;;2.90;;
17494;SDS011;8864;51.970;4.614;2023-03-14T10:36:57;11.32;;;2.65;;
17494;SDS011;8864;51.970;4.614;2023-03-14T10:39:41;10.85;;;2.42;;
17494;SDS011;8864;51.970;4.614;2023-03-14T10:42:14;11.13;;;2.30;;
17494;SDS011;8864;51.970;4.614;2023-03-14T10:44:46;11.13;;;2.22;;
17494;SDS011;8864;51.970;4.614;2023-03-14T10:47:17;15.52;;;2.75;;
17494;SDS011;8864;51.970;4.614;2023-03-14T10:49:46;9.07;;;2.30;;
17494;SDS011;8864;51.970;4.614;2023-03-14T10:52:17;8.70;;;2.20;;
17494;SDS011;8864;51.970;4.614;2023-03-14T10:54:48;8.18;;;1.88;;
17494;SDS011;8864;51.970;4.614;2023-03-14T10:57:18;11.68;;;2.10;;
17494;SDS011;8864;51.970;4.614;2023-03-14T10:59:46;9.95;;;2.38;;
17494;SDS011;8864;51.970;4.614;2023-03-14T11:02:28;14.77;;;2.50;;
17494;SDS011;8864;51.970;4.614;2023-03-14T11:05:09;6.93;;;1.73;;
17494;SDS011;8864;51.970;4.614;2023-03-14T11:07:43;11.68;;;2.00;;
17494;SDS011;8864;51.970;4.614;2023-03-14T11:10:13;11.25;;;1.95;;
17494;SDS011;8864;51.970;4.614;2023-03-14T11:12:49;9.50;;;2.00;;
17494;SDS011;8864;51.970;4.614;2023-03-14T11:15:28;9.57;;;1.83;;
17494;SDS011;8864;51.970;4.614;2023-03-14T11:21:02;9.25;;;2.00;;
17494;SDS011;8864;51.970;4.614;2023-03-14T11:23:39;10.15;;;2.05;;
17494;SDS011;8864;51.970;4.614;2023-03-14T11:26:14;10.73;;;2.13;;
17494;SDS011;8864;51.970;4.614;2023-03-14T11:28:56;10.80;;;2.35;;
17494;SDS011;8864;51.970;4.614;2023-03-14T11:31:25;8.05;;;1.70;;
17494;SDS011;8864;51.970;4.614;2023-03-14T11:33:55;10.35;;;1.92;;
17494;SDS011;8864;51.970;4.614;2023-03-14T11:36:27;8.52;;;1.88;;
17494;SDS011;8864;51.970;4.614;2023-03-14T11:38:58;7.53;;;2.00;;
17494;SDS011;8864;51.970;4.614;2023-03-14T11:41:25;10.57;;;1.75;;
17494;SDS011;8864;51.970;4.614;2023-03-14T11:43:58;10.52;;;1.70;;
17494;SDS011;8864;51.970;4.614;2023-03-14T11:46:28;6.40;;;1.65;;
17494;SDS011;8864;51.970;4.614;2023-03-14T11:49:00;7.90;;;1.50;;
17494;SDS011;8864;51.970;4.614;2023-03-14T11:51:32;8.90;;;2.20;;
17494;SDS011;8864;51.970;4.614;2023-03-14T11:54:03;5.20;;;1.80;;
17494;SDS011;8864;51.970;4.614;2023-03-14T11:56:39;6.45;;;1.92;;
17494;SDS011;8864;51.970;4.614;2023-03-14T11:59:14;8.38;;;1.52;;
17494;SDS011;8864;51.970;4.614;2023-03-14T12:01:52;5.38;;;1.58;;
17494;SDS011;8864;51.970;4.614;2023-03-14T12:04:23;5.40;;;1.63;;
17494;SDS011;8864;51.970;4.614;2023-03-14T12:07:09;7.35;;;1.50;;
17494;SDS011;8864;51.970;4.614;2023-03-14T12:09:43;5.55;;;1.30;;
17494;SDS011;8864;51.970;4.614;2023-03-14T12:12:12;6.45;;;1.50;;
17494;SDS011;8864;51.970;4.614;2023-03-14T12:14:45;4.57;;;1.60;;
17494;SDS011;8864;51.970;4.614;2023-03-14T12:17:19;6.15;;;1.40;;
17494;SDS011;8864;51.970;4.614;2023-03-14T12:19:48;10.30;;;1.50;;
17494;SDS011;8864;51.970;4.614;2023-03-14T12:22:31;7.93;;;1.63;;
17494;SDS011;8864;51.970;4.614;2023-03-14T12:25:02;6.95;;;1.70;;
17494;SDS011;8864;51.970;4.614;2023-03-14T12:30:32;5.22;;;1.42;;
17494;SDS011;8864;51.970;4.614;2023-03-14T12:33:11;8.20;;;1.73;;
17494;SDS011;8864;51.970;4.614;2023-03-14T12:35:56;6.13;;;1.58;;
17494;SDS011;8864;51.970;4.614;2023-03-14T12:38:27;4.43;;;1.20;;
17494;SDS011;8864;51.970;4.614;2023-03-14T12:41:05;7.03;;;1.45;;
17494;SDS011;8864;51.970;4.614;2023-03-14T12:43:39;3.13;;;1.10;;
17494;SDS011;8864;51.970;4.614;2023-03-14T12:46:08;3.78;;;1.48;;
17494;SDS011;8864;51.970;4.614;2023-03-14T12:48:47;7.80;;;1.63;;
17494;SDS011;8864;51.970;4.614;2023-03-14T12:51:17;6.03;;;1.33;;
17494;SDS011;8864;51.970;4.614;2023-03-14T12:56:42;5.97;;;1.42;;
17494;SDS011;8864;51.970;4.614;2023-03-14T12:59:29;3.50;;;1.20;;
17494;SDS011;8864;51.970;4.614;2023-03-14T13:02:01;3.78;;;1.20;;
17494;SDS011;8864;51.970;4.614;2023-03-14T13:04:43;4.72;;;1.10;;
17494;SDS011;8864;51.970;4.614;2023-03-14T13:07:12;3.42;;;1.23;;
17494;SDS011;8864;51.970;4.614;2023-03-14T13:12:47;4.05;;;1.20;;
17494;SDS011;8864;51.970;4.614;2023-03-14T13:15:20;3.67;;;1.02;;
17494;SDS011;8864;51.970;4.614;2023-03-14T13:17:52;3.85;;;1.10;;
17494;SDS011;8864;51.970;4.614;2023-03-14T13:20:24;4.15;;;0.93;;
17494;SDS011;8864;51.970;4.614;2023-03-14T13:22:55;5.05;;;1.02;;
17494;SDS011;8864;51.970;4.614;2023-03-14T13:25:22;3.03;;;1.13;;
17494;SDS011;8864;51.970;4.614;2023-03-14T13:27:49;3.30;;;1.05;;
17494;SDS011;8864;51.970;4.614;2023-03-14T13:30:21;4.20;;;1.10;;
17494;SDS011;8864;51.970;4.614;2023-03-14T13:32:49;3.92;;;1.33;;
17494;SDS011;8864;51.970;4.614;2023-03-14T13:35:20;4.40;;;1.30;;
17494;SDS011;8864;51.970;4.614;2023-03-14T13:37:52;3.55;;;1.13;;
17494;SDS011;8864;51.970;4.614;2023-03-14T13:40:24;4.68;;;1.17;;
17494;SDS011;8864;51.970;4.614;2023-03-14T13:43:02;5.80;;;1.10;;
17494;SDS011;8864;51.970;4.614;2023-03-14T13:45:31;2.00;;;0.93;;
17494;SDS011;8864;51.970;4.614;2023-03-14T13:48:25;2.45;;;0.90;;
17494;SDS011;8864;51.970;4.614;2023-03-14T13:50:55;2.95;;;0.98;;
17494;SDS011;8864;51.970;4.614;2023-03-14T13:53:24;3.60;;;1.00;;
17494;SDS011;8864;51.970;4.614;2023-03-14T13:55:52;3.10;;;0.88;;
17494;SDS011;8864;51.970;4.614;2023-03-14T13:58:19;2.92;;;0.85;;
17494;SDS011;8864;51.970;4.614;2023-03-14T14:00:54;3.38;;;0.95;;
17494;SDS011;8864;51.970;4.614;2023-03-14T14:03:34;2.75;;;0.85;;
17494;SDS011;8864;51.970;4.614;2023-03-14T14:06:05;3.78;;;0.80;;
17494;SDS011;8864;51.970;4.614;2023-03-14T14:08:39;2.20;;;0.90;;
17494;SDS011;8864;51.970;4.614;2023-03-14T14:11:07;4.63;;;1.17;;
17494;SDS011;8864;51.970;4.614;2023-03-14T14:13:43;2.83;;;1.00;;
17494;SDS011;8864;51.970;4.614;2023-03-14T14:16:19;3.72;;;0.80;;
17494;SDS011;8864;51.970;4.614;2023-03-14T14:18:52;4.78;;;1.00;;
17494;SDS011;8864;51.970;4.614;2023-03-14T14:21:21;2.95;;;0.80;;
17494;SDS011;8864;51.970;4.614;2023-03-14T14:23:48;3.42;;;0.73;;
17494;SDS011;8864;51.970;4.614;2023-03-14T14:26:16;2.05;;;0.70;;
17494;SDS011;8864;51.970;4.614;2023-03-14T14:28:44;3.70;;;1.20;;
17494;SDS011;8864;51.970;4.614;2023-03-14T14:31:18;7.10;;;1.05;;
17494;SDS011;8864;51.970;4.614;2023-03-14T14:33:54;2.20;;;0.90;;
17494;SDS011;8864;51.970;4.614;2023-03-14T14:36:23;3.00;;;0.80;;
17494;SDS011;8864;51.970;4.614;2023-03-14T14:38:52;2.22;;;1.00;;
17494;SDS011;8864;51.970;4.614;2023-03-14T14:41:26;3.72;;;0.95;;
17494;SDS011;8864;51.970;4.614;2023-03-14T14:43:54;2.97;;;0.90;;
17494;SDS011;8864;51.970;4.614;2023-03-14T14:46:22;2.67;;;1.00;;
17494;SDS011;8864;51.970;4.614;2023-03-14T14:48:56;3.80;;;1.02;;
17494;SDS011;8864;51.970;4.614;2023-03-14T14:51:24;3.35;;;0.82;;
17494;SDS011;8864;51.970;4.614;2023-03-14T14:54:02;6.35;;;0.98;;
17494;SDS011;8864;51.970;4.614;2023-03-14T14:56:40;1.67;;;0.70;;
17494;SDS011;8864;51.970;4.614;2023-03-14T14:59:18;5.75;;;1.27;;
17494;SDS011;8864;51.970;4.614;2023-03-14T15:01:48;1.67;;;0.80;;
17494;SDS011;8864;51.970;4.614;2023-03-14T15:04:17;2.45;;;0.90;;
17494;SDS011;8864;51.970;4.614;2023-03-14T15:06:45;3.85;;;0.85;;
17494;SDS011;8864;51.970;4.614;2023-03-14T15:09:15;4.38;;;1.00;;
17494;SDS011;8864;51.970;4.614;2023-03-14T15:11:43;4.22;;;0.70;;
17494;SDS011;8864;51.970;4.614;2023-03-14T15:14:10;2.78;;;0.82;;
17494;SDS011;8864;51.970;4.614;2023-03-14T15:16:37;4.65;;;1.13;;
17494;SDS011;8864;51.970;4.614;2023-03-14T15:19:09;3.63;;;0.93;;
17494;SDS011;8864;51.970;4.614;2023-03-14T15:21:39;2.92;;;0.63;;
17494;SDS011;8864;51.970;4.614;2023-03-14T15:24:08;3.03;;;0.90;;
17494;SDS011;8864;51.970;4.614;2023-03-14T15:26:35;2.70;;;0.80;;
17494;SDS011;8864;51.970;4.614;2023-03-14T15:29:02;2.30;;;0.75;;